KYIP/YIP METAR and TAF weather

Enter ICAO airport designator
Station Type Date Time Source
KYIP METAR 2021/09/25 12:42 UTC NOAA

KYIP 251242Z 24006KT 5SM -RA SCT011 BKN060 OVC075 15/12 A2993 RMK AO2 P0008 T01500122


Station Type Date Time Source
KYIP Decoded METAR 2021/09/25 12:42 UTC NOAA

WILLOW RUN AIRPORT, MI, United States (KYIP) 42-14N 083-32W 215M
Sep 25, 2021 - 08:42 AM EDT / 2021.09.25 1242 UTC
Wind: from the WSW (240 degrees) at 7 MPH (6 KT):0
Visibility: 5 mile(s):0
Sky conditions: overcast
Weather: light rain
Precipitation last hour: 0.08 inches
Temperature: 59.0 F (15.0 C)
Dew Point: 54.0 F (12.2 C)
Relative Humidity: 83%
Pressure (altimeter): 29.93 in. Hg (1013 hPa)
ob: KYIP 251242Z 24006KT 5SM -RA SCT011 BKN060 OVC075 15/12 A2993 RMK AO2 P0008 T01500122
cycle: 12

Station Type Date Time Source
KYIP TAF 2021/09/25 12:22 UTC NOAA

TAF KYIP 251120Z 2512/2612 26008KT 6SM -SHRA BKN028 OVC060
TEMPO 2514/2516 5SM -SHRA BR BKN018 OVC040
FM251600 27011G19KT P6SM SCT025 BKN045
FM252300 25006KT P6SM SCT070 SCT200
FM260500 22009KT P6SM SCT080 BKN120

Example: see airport list